sensor_id;sensor_type;location;lat;lon;timestamp;pressure;altitude;pressure_sealevel;temperature;humidity
57904;BME280;43720;47.462;19.030;2023-09-19T03:48:09;99823.09;;;20.61;95.63
57904;BME280;43720;47.462;19.030;2023-09-19T03:51:12;99816.94;;;20.61;95.88
57904;BME280;43720;47.462;19.030;2023-09-19T03:54:14;99820.16;;;20.69;94.36
57904;BME280;43720;47.462;19.030;2023-09-19T03:57:17;99816.00;;;20.62;95.02
57904;BME280;43720;47.462;19.030;2023-09-19T04:00:23;99823.00;;;20.64;94.24
57904;BME280;43720;47.462;19.030;2023-09-19T04:03:28;99823.13;;;20.60;95.58
57904;BME280;43720;47.462;19.030;2023-09-19T04:06:37;99828.06;;;20.70;94.04
57904;BME280;43720;47.462;19.030;2023-09-19T04:09:40;99838.94;;;20.64;95.14
57904;BME280;43720;47.462;19.030;2023-09-19T04:12:55;99819.72;;;20.81;93.27
57904;BME280;43720;47.462;19.030;2023-09-19T04:15:58;99828.63;;;20.80;93.63
57904;BME280;43720;47.462;19.030;2023-09-19T04:19:00;99831.31;;;20.79;93.74
57904;BME280;43720;47.462;19.030;2023-09-19T04:22:03;99833.97;;;20.79;93.83
57904;BME280;43720;47.462;19.030;2023-09-19T04:25:06;99844.66;;;20.77;94.03
57904;BME280;43720;47.462;19.030;2023-09-19T04:28:12;99842.13;;;20.74;94.94
57904;BME280;43720;47.462;19.030;2023-09-19T04:31:18;99840.87;;;20.84;94.21
57904;BME280;43720;47.462;19.030;2023-09-19T04:34:22;99848.56;;;20.92;93.64
57904;BME280;43720;47.462;19.030;2023-09-19T04:37:26;99856.91;;;20.81;94.49
57904;BME280;43720;47.462;19.030;2023-09-19T04:40:28;99852.53;;;20.80;94.93
57904;BME280;43720;47.462;19.030;2023-09-19T04:43:31;99856.22;;;20.76;95.21
57904;BME280;43720;47.462;19.030;2023-09-19T04:46:34;99857.13;;;20.75;95.57
57904;BME280;43720;47.462;19.030;2023-09-19T04:49:37;99869.28;;;20.82;95.92
57904;BME280;43720;47.462;19.030;2023-09-19T04:52:43;99874.47;;;20.85;96.43
57904;BME280;43720;47.462;19.030;2023-09-19T04:55:50;99875.03;;;20.95;95.65
57904;BME280;43720;47.462;19.030;2023-09-19T04:58:55;99878.84;;;20.88;93.78
57904;BME280;43720;47.462;19.030;2023-09-19T05:01:57;99880.72;;;20.84;91.83
57904;BME280;43720;47.462;19.030;2023-09-19T05:04:59;99880.75;;;20.83;92.01
57904;BME280;43720;47.462;19.030;2023-09-19T05:08:02;99886.03;;;20.84;91.83
57904;BME280;43720;47.462;19.030;2023-09-19T05:11:07;99894.78;;;20.88;91.52
57904;BME280;43720;47.462;19.030;2023-09-19T05:14:11;99895.03;;;20.80;92.57
57904;BME280;43720;47.462;19.030;2023-09-19T05:17:14;99899.09;;;20.65;93.20
57904;BME280;43720;47.462;19.030;2023-09-19T05:20:19;99908.59;;;20.46;94.95
57904;BME280;43720;47.462;19.030;2023-09-19T05:23:32;99910.41;;;20.44;95.74
57904;BME280;43720;47.462;19.030;2023-09-19T05:26:34;99917.97;;;20.30;95.32
57904;BME280;43720;47.462;19.030;2023-09-19T05:29:37;99928.69;;;20.26;95.25
57904;BME280;43720;47.462;19.030;2023-09-19T05:32:39;99921.91;;;20.18;95.15
57904;BME280;43720;47.462;19.030;2023-09-19T05:35:42;99933.78;;;20.06;95.59
57904;BME280;43720;47.462;19.030;2023-09-19T05:38:44;99930.13;;;20.10;96.17
57904;BME280;43720;47.462;19.030;2023-09-19T05:41:47;99935.69;;;20.01;96.32
57904;BME280;43720;47.462;19.030;2023-09-19T05:44:49;99926.78;;;20.03;95.52
57904;BME280;43720;47.462;19.030;2023-09-19T05:47:52;99926.84;;;20.02;95.82
57904;BME280;43720;47.462;19.030;2023-09-19T05:50:58;99921.00;;;19.91;96.45
57904;BME280;43720;47.462;19.030;2023-09-19T05:54:03;99928.56;;;20.03;95.88
57904;BME280;43720;47.462;19.030;2023-09-19T05:57:07;99938.47;;;19.98;96.55
57904;BME280;43720;47.462;19.030;2023-09-19T06:00:10;99941.06;;;19.99;95.30
57904;BME280;43720;47.462;19.030;2023-09-19T06:03:13;99941.22;;;19.95;95.88
57904;BME280;43720;47.462;19.030;2023-09-19T06:06:16;99941.97;;;19.98;95.27
57904;BME280;43720;47.462;19.030;2023-09-19T06:09:19;99938.94;;;19.83;96.04
57904;BME280;43720;47.462;19.030;2023-09-19T06:12:25;99941.63;;;19.81;96.20
57904;BME280;43720;47.462;19.030;2023-09-19T06:15:28;99944.91;;;19.89;96.26
57904;BME280;43720;47.462;19.030;2023-09-19T06:18:33;99941.69;;;19.78;95.92
57904;BME280;43720;47.462;19.030;2023-09-19T06:21:36;99945.91;;;19.85;95.78
57904;BME280;43720;47.462;19.030;2023-09-19T06:24:39;99948.88;;;19.74;97.23
57904;BME280;43720;47.462;19.030;2023-09-19T06:27:42;99954.56;;;19.61;96.57
57904;BME280;43720;47.462;19.030;2023-09-19T06:30:44;99955.31;;;19.67;95.93
57904;BME280;43720;47.462;19.030;2023-09-19T06:33:47;99956.50;;;19.55;97.71
57904;BME280;43720;47.462;19.030;2023-09-19T06:36:51;99960.97;;;19.53;99.01
57904;BME280;43720;47.462;19.030;2023-09-19T06:39:53;99967.81;;;19.62;98.54
57904;BME280;43720;47.462;19.030;2023-09-19T06:42:56;99962.47;;;19.64;97.25
57904;BME280;43720;47.462;19.030;2023-09-19T06:45:58;99963.37;;;19.63;98.33
57904;BME280;43720;47.462;19.030;2023-09-19T06:49:02;99965.03;;;19.67;98.14
57904;BME280;43720;47.462;19.030;2023-09-19T06:52:08;99964.34;;;19.59;96.59
57904;BME280;43720;47.462;19.030;2023-09-19T06:55:11;99971.53;;;19.55;98.65
57904;BME280;43720;47.462;19.030;2023-09-19T06:58:15;99975.88;;;19.58;99.03
57904;BME280;43720;47.462;19.030;2023-09-19T07:01:19;99995.44;;;19.53;100.00
57904;BME280;43720;47.462;19.030;2023-09-19T07:04:21;100004.44;;;19.48;100.00
57904;BME280;43720;47.462;19.030;2023-09-19T07:07:24;100010.75;;;19.44;100.00
57904;BME280;43720;47.462;19.030;2023-09-19T07:10:27;100006.56;;;19.35;100.00
57904;BME280;43720;47.462;19.030;2023-09-19T07:13:31;100014.44;;;19.38;100.00
57904;BME280;43720;47.462;19.030;2023-09-19T07:16:33;100028.06;;;19.24;100.00
57904;BME280;43720;47.462;19.030;2023-09-19T07:19:36;100026.28;;;19.25;100.00
57904;BME280;43720;47.462;19.030;2023-09-19T07:22:38;100038.19;;;19.09;100.00
57904;BME280;43720;47.462;19.030;2023-09-19T07:25:42;100042.19;;;18.89;100.00
57904;BME280;43720;47.462;19.030;2023-09-19T07:28:45;100033.50;;;18.86;100.00
57904;BME280;43720;47.462;19.030;2023-09-19T07:31:48;100030.63;;;18.93;100.00
57904;BME280;43720;47.462;19.030;2023-09-19T07:34:50;100037.22;;;18.77;100.00
57904;BME280;43720;47.462;19.030;2023-09-19T07:37:53;100036.28;;;18.79;100.00
57904;BME280;43720;47.462;19.030;2023-09-19T07:41:01;100042.56;;;18.74;100.00
57904;BME280;43720;47.462;19.030;2023-09-19T07:44:05;100050.44;;;18.78;100.00
57904;BME280;43720;47.462;19.030;2023-09-19T07:47:07;100057.53;;;18.78;100.00
57904;BME280;43720;47.462;19.030;2023-09-19T07:50:10;100056.16;;;18.96;100.00
57904;BME280;43720;47.462;19.030;2023-09-19T07:53:13;100069.72;;;18.84;100.00
57904;BME280;43720;47.462;19.030;2023-09-19T07:56:18;100078.59;;;18.81;100.00
57904;BME280;43720;47.462;19.030;2023-09-19T07:59:22;100076.97;;;18.75;100.00
57904;BME280;43720;47.462;19.030;2023-09-19T08:02:25;100093.09;;;18.65;100.00
57904;BME280;43720;47.462;19.030;2023-09-19T08:05:28;100098.28;;;18.71;100.00
57904;BME280;43720;47.462;19.030;2023-09-19T08:08:30;100095.63;;;18.69;100.00
57904;BME280;43720;47.462;19.030;2023-09-19T08:11:33;100103.97;;;18.91;100.00
57904;BME280;43720;47.462;19.030;2023-09-19T08:14:36;100099.78;;;18.83;100.00
57904;BME280;43720;47.462;19.030;2023-09-19T08:17:39;100107.84;;;18.76;100.00
57904;BME280;43720;47.462;19.030;2023-09-19T08:20:42;100118.59;;;18.69;100.00
57904;BME280;43720;47.462;19.030;2023-09-19T08:23:45;100122.06;;;18.72;100.00
57904;BME280;43720;47.462;19.030;2023-09-19T08:26:47;100124.78;;;18.71;100.00
57904;BME280;43720;47.462;19.030;2023-09-19T08:29:50;100124.72;;;18.72;100.00
57904;BME280;43720;47.462;19.030;2023-09-19T08:32:57;100124.66;;;18.74;100.00
57904;BME280;43720;47.462;19.030;2023-09-19T08:36:05;100126.44;;;18.75;100.00
57904;BME280;43720;47.462;19.030;2023-09-19T08:39:09;100133.53;;;18.73;100.00
57904;BME280;43720;47.462;19.030;2023-09-19T08:42:11;100137.78;;;18.80;100.00
57904;BME280;43720;47.462;19.030;2023-09-19T08:45:15;100153.56;;;18.86;100.00
57904;BME280;43720;47.462;19.030;2023-09-19T08:48:26;100165.94;;;18.84;100.00
57904;BME280;43720;47.462;19.030;2023-09-19T08:51:41;100173.09;;;18.80;100.00
57904;BME280;43720;47.462;19.030;2023-09-19T08:54:47;100186.31;;;18.82;100.00
57904;BME280;43720;47.462;19.030;2023-09-19T08:57:51;100181.06;;;18.79;100.00
57904;BME280;43720;47.462;19.030;2023-09-19T09:00:54;100193.53;;;18.74;100.00
57904;BME280;43720;47.462;19.030;2023-09-19T09:03:59;100197.22;;;18.67;100.00
57904;BME280;43720;47.462;19.030;2023-09-19T09:07:03;100200.88;;;18.60;100.00
57904;BME280;43720;47.462;19.030;2023-09-19T09:10:06;100193.06;;;18.53;100.00
57904;BME280;43720;47.462;19.030;2023-09-19T09:13:09;100176.25;;;18.54;100.00
57904;BME280;43720;47.462;19.030;2023-09-19T09:16:14;100166.59;;;18.53;100.00
57904;BME280;43720;47.462;19.030;2023-09-19T09:19:19;100149.72;;;18.59;100.00
57904;BME280;43720;47.462;19.030;2023-09-19T09:22:26;100135.56;;;18.60;100.00
57904;BME280;43720;47.462;19.030;2023-09-19T09:25:49;100121.22;;;18.72;100.00
57904;BME280;43720;47.462;19.030;2023-09-19T09:29:09;100120.34;;;18.71;100.00
57904;BME280;43720;47.462;19.030;2023-09-19T09:32:23;100108.47;;;18.88;100.00
57904;BME280;43720;47.462;19.030;2023-09-19T09:35:26;100096.09;;;18.88;100.00
57904;BME280;43720;47.462;19.030;2023-09-19T09:38:42;100103.22;;;18.86;100.00
57904;BME280;43720;47.462;19.030;2023-09-19T09:41:45;100124.59;;;18.78;100.00
57904;BME280;43720;47.462;19.030;2023-09-19T09:45:14;100124.47;;;18.83;100.00
57904;BME280;43720;47.462;19.030;2023-09-19T09:48:24;100138.53;;;18.87;100.00
57904;BME280;43720;47.462;19.030;2023-09-19T09:51:34;100156.25;;;18.83;100.00
57904;BME280;43720;47.462;19.030;2023-09-19T09:54:36;100165.78;;;18.92;100.00
57904;BME280;43720;47.462;19.030;2023-09-19T09:57:39;100160.53;;;18.90;100.00
57904;BME280;43720;47.462;19.030;2023-09-19T10:00:53;100150.91;;;18.86;100.00
57904;BME280;43720;47.462;19.030;2023-09-19T10:03:59;100145.78;;;18.77;100.00
57904;BME280;43720;47.462;19.030;2023-09-19T10:07:03;100149.28;;;18.79;100.00
57904;BME280;43720;47.462;19.030;2023-09-19T10:10:13;100147.22;;;18.92;100.00
57904;BME280;43720;47.462;19.030;2023-09-19T10:13:19;100151.03;;;19.17;100.00
57904;BME280;43720;47.462;19.030;2023-09-19T10:16:23;100142.66;;;19.34;100.00
57904;BME280;43720;47.462;19.030;2023-09-19T10:19:50;100142.34;;;19.46;100.00
57904;BME280;43720;47.462;19.030;2023-09-19T10:23:01;100147.56;;;19.49;100.00
57904;BME280;43720;47.462;19.030;2023-09-19T10:26:06;100158.25;;;19.46;100.00
57904;BME280;43720;47.462;19.030;2023-09-19T10:29:09;100152.63;;;19.59;100.00
57904;BME280;43720;47.462;19.030;2023-09-19T10:32:14;100162.25;;;19.64;100.00
57904;BME280;43720;47.462;19.030;2023-09-19T10:35:21;100165.00;;;19.60;100.00
57904;BME280;43720;47.462;19.030;2023-09-19T10:38:27;100166.59;;;19.67;100.00
57904;BME280;43720;47.462;19.030;2023-09-19T10:41:32;100169.94;;;19.73;100.00
57904;BME280;43720;47.462;19.030;2023-09-19T10:44:37;100164.44;;;19.83;100.00
57904;BME280;43720;47.462;19.030;2023-09-19T10:47:44;100171.47;;;19.82;100.00
57904;BME280;43720;47.462;19.030;2023-09-19T10:51:21;100165.09;;;19.91;100.00
57904;BME280;43720;47.462;19.030;2023-09-19T10:54:24;100172.00;;;19.96;100.00
57904;BME280;43720;47.462;19.030;2023-09-19T10:57:29;100175.34;;;20.03;100.00
57904;BME280;43720;47.462;19.030;2023-09-19T11:07:30;100183.25;;;20.04;100.00
57904;BME280;43720;47.462;19.030;2023-09-19T11:10:50;100192.00;;;20.10;100.00
57904;BME280;43720;47.462;19.030;2023-09-19T11:20:23;100186.00;;;20.93;100.00
57904;BME280;43720;47.462;19.030;2023-09-19T11:23:27;100194.03;;;21.20;100.00
57904;BME280;43720;47.462;19.030;2023-09-19T11:26:41;100179.34;;;21.36;100.00
57904;BME280;43720;47.462;19.030;2023-09-19T11:30:25;100186.19;;;21.15;100.00
57904;BME280;43720;47.462;19.030;2023-09-19T11:33:30;100182.72;;;20.85;100.00
57904;BME280;43720;47.462;19.030;2023-09-19T11:36:35;100175.91;;;20.76;94.78
57904;BME280;43720;47.462;19.030;2023-09-19T11:39:39;100183.03;;;20.74;95.51
57904;BME280;43720;47.462;19.030;2023-09-19T11:42:46;100173.72;;;20.89;93.01
57904;BME280;43720;47.462;19.030;2023-09-19T11:46:02;100164.06;;;21.15;90.86
57904;BME280;43720;47.462;19.030;2023-09-19T11:49:08;100144.31;;;20.95;89.89
57904;BME280;43720;47.462;19.030;2023-09-19T11:52:21;100150.94;;;21.10;89.68
57904;BME280;43720;47.462;19.030;2023-09-19T11:55:28;100153.47;;;21.13;89.20
57904;BME280;43720;47.462;19.030;2023-09-19T11:58:34;100159.94;;;21.33;90.19
57904;BME280;43720;47.462;19.030;2023-09-19T12:01:38;100144.22;;;21.53;90.51
57904;BME280;43720;47.462;19.030;2023-09-19T12:04:47;100143.69;;;21.68;90.51
57904;BME280;43720;47.462;19.030;2023-09-19T12:07:55;100147.19;;;21.69;88.65
57904;BME280;43720;47.462;19.030;2023-09-19T12:10:58;100167.72;;;21.65;89.47
57904;BME280;43720;47.462;19.030;2023-09-19T12:14:01;100137.88;;;21.56;86.48
57904;BME280;43720;47.462;19.030;2023-09-19T12:17:04;100146.19;;;21.71;87.35
57904;BME280;43720;47.462;19.030;2023-09-19T12:20:07;100140.41;;;21.85;86.23
57904;BME280;43720;47.462;19.030;2023-09-19T12:23:16;100143.88;;;21.87;86.15
57904;BME280;43720;47.462;19.030;2023-09-19T12:26:19;100140.34;;;22.12;85.35
57904;BME280;43720;47.462;19.030;2023-09-19T12:29:22;100145.75;;;22.34;83.58
57904;BME280;43720;47.462;19.030;2023-09-19T12:32:34;100151.25;;;22.29;80.72
57904;BME280;43720;47.462;19.030;2023-09-19T12:35:38;100157.84;;;22.19;80.34
57904;BME280;43720;47.462;19.030;2023-09-19T12:38:47;100161.31;;;22.21;83.27
57904;BME280;43720;47.462;19.030;2023-09-19T12:41:51;100161.22;;;22.24;82.13
57904;BME280;43720;47.462;19.030;2023-09-19T12:44:53;100165.84;;;22.19;80.75
57904;BME280;43720;47.462;19.030;2023-09-19T12:51:23;100165.38;;;22.31;81.82
57904;BME280;43720;47.462;19.030;2023-09-19T12:54:40;100158.28;;;22.30;80.23
57904;BME280;43720;47.462;19.030;2023-09-19T12:57:43;100161.00;;;22.54;80.40
57904;BME280;43720;47.462;19.030;2023-09-19T13:00:46;100158.25;;;22.55;79.86
57904;BME280;43720;47.462;19.030;2023-09-19T13:04:18;100156.72;;;22.50;78.29
57904;BME280;43720;47.462;19.030;2023-09-19T13:07:44;100167.28;;;22.51;79.51
57904;BME280;43720;47.462;19.030;2023-09-19T13:11:19;100160.28;;;22.49;78.17
57904;BME280;43720;47.462;19.030;2023-09-19T13:14:25;100153.72;;;22.57;77.08
57904;BME280;43720;47.462;19.030;2023-09-19T13:17:43;100161.69;;;22.35;78.25
57904;BME280;43720;47.462;19.030;2023-09-19T13:21:06;100160.75;;;22.36;79.33
57904;BME280;43720;47.462;19.030;2023-09-19T13:27:21;100169.13;;;22.49;76.77
57904;BME280;43720;47.462;19.030;2023-09-19T13:30:26;100174.16;;;22.33;77.96
57904;BME280;43720;47.462;19.030;2023-09-19T13:33:28;100170.00;;;22.26;79.50
57904;BME280;43720;47.462;19.030;2023-09-19T13:36:33;100173.59;;;22.25;79.22
57904;BME280;43720;47.462;19.030;2023-09-19T13:39:35;100172.72;;;22.25;80.14
57904;BME280;43720;47.462;19.030;2023-09-19T13:42:38;100176.81;;;22.35;78.39
57904;BME280;43720;47.462;19.030;2023-09-19T13:45:42;100182.72;;;22.43;78.27
57904;BME280;43720;47.462;19.030;2023-09-19T13:48:44;100180.63;;;22.51;77.25
57904;BME280;43720;47.462;19.030;2023-09-19T13:51:47;100197.28;;;22.56;76.68
57904;BME280;43720;47.462;19.030;2023-09-19T13:54:50;100185.19;;;22.48;75.46
57904;BME280;43720;47.462;19.030;2023-09-19T13:57:52;100182.25;;;22.55;75.94
57904;BME280;43720;47.462;19.030;2023-09-19T14:00:56;100185.53;;;22.62;76.23
57904;BME280;43720;47.462;19.030;2023-09-19T14:04:00;100185.09;;;22.73;74.57
57904;BME280;43720;47.462;19.030;2023-09-19T14:07:04;100188.88;;;22.67;75.81
57904;BME280;43720;47.462;19.030;2023-09-19T14:10:07;100193.66;;;22.59;74.77
57904;BME280;43720;47.462;19.030;2023-09-19T14:13:12;100197.56;;;22.49;75.58
57904;BME280;43720;47.462;19.030;2023-09-19T14:16:18;100198.22;;;22.32;76.20
57904;BME280;43720;47.462;19.030;2023-09-19T14:19:20;100198.38;;;22.27;76.69
57904;BME280;43720;47.462;19.030;2023-09-19T14:22:23;100195.59;;;22.30;76.21
57904;BME280;43720;47.462;19.030;2023-09-19T14:25:25;100195.38;;;22.36;77.24
57904;BME280;43720;47.462;19.030;2023-09-19T14:28:28;100193.16;;;22.24;77.40
57904;BME280;43720;47.462;19.030;2023-09-19T14:31:31;100189.84;;;22.17;77.42
57904;BME280;43720;47.462;19.030;2023-09-19T14:34:35;100191.31;;;22.26;77.57
57904;BME280;43720;47.462;19.030;2023-09-19T14:37:42;100193.53;;;22.38;76.99
57904;BME280;43720;47.462;19.030;2023-09-19T14:40:45;100187.16;;;22.42;76.83
57904;BME280;43720;47.462;19.030;2023-09-19T14:43:47;100184.91;;;22.55;75.94
57904;BME280;43720;47.462;19.030;2023-09-19T14:46:50;100179.56;;;22.55;75.29
57904;BME280;43720;47.462;19.030;2023-09-19T14:49:52;100184.38;;;22.45;74.76
57904;BME280;43720;47.462;19.030;2023-09-19T14:52:55;100177.28;;;22.46;73.97
57904;BME280;43720;47.462;19.030;2023-09-19T14:56:00;100186.00;;;22.50;74.49
57904;BME280;43720;47.462;19.030;2023-09-19T14:59:02;100187.62;;;22.54;75.77
57904;BME280;43720;47.462;19.030;2023-09-19T15:02:06;100190.31;;;22.54;70.89
57904;BME280;43720;47.462;19.030;2023-09-19T15:05:09;100189.53;;;22.50;69.86
57904;BME280;43720;47.462;19.030;2023-09-19T15:08:11;100191.09;;;22.56;70.30
57904;BME280;43720;47.462;19.030;2023-09-19T15:11:15;100187.94;;;22.46;70.44
57904;BME280;43720;47.462;19.030;2023-09-19T15:14:20;100191.38;;;22.48;71.50
57904;BME280;43720;47.462;19.030;2023-09-19T15:17:23;100198.59;;;22.46;71.19
57904;BME280;43720;47.462;19.030;2023-09-19T15:20:27;100210.97;;;22.47;70.34
57904;BME280;43720;47.462;19.030;2023-09-19T15:23:30;100201.34;;;22.43;69.66
57904;BME280;43720;47.462;19.030;2023-09-19T15:26:34;100205.00;;;22.40;69.86
57904;BME280;43720;47.462;19.030;2023-09-19T15:29:37;100202.50;;;22.36;70.63
57904;BME280;43720;47.462;19.030;2023-09-19T15:32:40;100203.44;;;22.35;71.08
